Terminal Aerodrome Forecast
Issued by NWS Cleveland, OH

Home | Current Version | Previous Version | Text Only | Print | Product List | Glossary On
Versions: 1 2 3 4 5 6 7 8 9 10 11 12 13 14 15 16 17 18 19 20 21 22 23 24
000
FTUS41 KCLE 181100
TAFYNG
TAF
KYNG 181134Z 1812/1912 00000KT 1/2SM FG SCT045
     FM181230 35004KT 5SM BR SCT045
     FM181400 01009KT P6SM SCT035
     FM190300 06004KT P6SM SCT025
     FM190900 08003KT 5SM BR SCT020 BKN250=

USA.gov is the U.S. government's official web portal to all federal, state and local government web resources and services.